Time;durP1;ratioP1;P1;durP2;ratioP2;P2;SDS_P1;SDS_P2;PMS_P1;PMS_P2;Temp;Humidity;BMP_temperature;BMP_pressure;BME280_temperature;BME280_humidity;BME280_pressure;Samples;Min_cycle;Max_cycle;Signal;HPM_P1;HPM_P2
2022/07/06 00:10:37;;;;;;;9.88;7.58;;;;;;;17.74;100.00;99101.86;4039814;87;21043;-81
2022/07/06 00:17:09;;;;;;;8.60;7.25;;;;;;;17.66;100.00;99094.27;4013348;87;21031;-82
2022/07/06 00:23:21;;;;;;;16.00;8.25;;;;;;;17.65;100.00;99099.61;3992474;89;21044;-81
2022/07/06 00:29:48;;;;;;;10.63;7.03;;;;;;;17.67;100.00;99093.05;3941486;87;21067;-81
2022/07/06 00:36:04;;;;;;;7.05;6.37;;;;;;;17.64;100.00;99094.48;3904745;90;21603;-82
2022/07/06 00:42:27;;;;;;;9.68;6.50;;;;;;;17.58;100.00;99092.02;3962616;87;21154;-81
2022/07/06 00:48:29;;;;;;;11.43;5.75;;;;;;;17.55;100.00;99097.01;3959196;87;21149;-82
2022/07/06 00:54:54;;;;;;;6.65;6.08;;;;;;;17.49;100.00;99093.16;4007098;87;21918;-82
2022/07/06 01:01:03;;;;;;;7.47;5.60;;;;;;;17.49;100.00;99091.17;4024245;87;21546;-82
2022/07/06 01:07:29;;;;;;;6.50;5.55;;;;;;;17.37;100.00;99100.63;4024837;87;21089;-82
2022/07/06 01:13:33;;;;;;;7.87;5.72;;;;;;;17.43;100.00;99094.17;4012725;86;21067;-82
2022/07/06 01:26:21;;;;;;;8.13;6.22;;;;;;;17.39;100.00;99089.90;4044563;86;21036;-81
2022/07/06 01:32:31;;;;;;;6.97;6.03;;;;;;;17.42;100.00;99098.75;4100715;85;21078;-82
2022/07/06 01:38:58;;;;;;;8.35;6.00;;;;;;;17.43;100.00;99101.09;4055312;86;21062;-82
2022/07/06 01:52:00;;;;;;;7.72;6.60;;;;;;;17.39;100.00;99110.66;4055773;87;21122;-82
2022/07/06 01:58:10;;;;;;;9.23;6.65;;;;;;;17.32;100.00;99108.77;4054369;87;21028;-82
2022/07/06 02:04:14;;;;;;;8.10;6.55;;;;;;;17.29;100.00;99110.98;4053749;86;21040;-82
2022/07/06 02:10:16;;;;;;;6.90;6.17;;;;;;;17.23;100.00;99103.59;4020105;86;21095;-82
2022/07/06 02:16:30;;;;;;;10.20;6.75;;;;;;;17.22;100.00;99100.03;3983509;87;21354;-82
2022/07/06 02:22:37;;;;;;;11.40;7.05;;;;;;;17.20;100.00;99096.89;4043448;86;21091;-82
2022/07/06 02:28:44;;;;;;;9.23;7.10;;;;;;;17.19;100.00;99094.71;4032075;86;55002;-82
2022/07/06 02:34:52;;;;;;;7.97;7.15;;;;;;;17.20;100.00;99099.06;4047285;86;21688;-82
2022/07/06 02:40:57;;;;;;;15.43;7.58;;;;;;;17.19;100.00;99096.72;4054021;88;21075;-82
2022/07/06 02:47:02;;;;;;;8.58;7.72;;;;;;;17.20;100.00;99096.89;3978809;88;21105;-82
2022/07/06 02:53:04;;;;;;;9.25;8.40;;;;;;;17.21;100.00;99095.09;4041954;86;21055;-83
2022/07/06 02:59:11;;;;;;;10.78;9.78;;;;;;;17.24;100.00;99105.31;4035497;86;21064;-83
2022/07/06 03:05:30;;;;;;;15.27;9.53;;;;;;;17.23;100.00;99104.97;4029917;86;21183;-83
2022/07/06 03:11:51;;;;;;;15.68;10.75;;;;;;;17.23;100.00;99100.83;4044669;87;21016;-83
2022/07/06 03:17:53;;;;;;;19.07;10.15;;;;;;;17.21;100.00;99105.39;4046336;87;21654;-83
2022/07/06 03:23:57;;;;;;;14.73;12.40;;;;;;;17.23;100.00;99111.89;4036823;86;21098;-83
2022/07/06 03:30:09;;;;;;;19.32;14.58;;;;;;;17.25;100.00;99128.24;3979017;88;21530;-83
2022/07/06 03:36:54;;;;;;;16.95;13.75;;;;;;;17.21;100.00;99128.28;3931773;88;21088;-83
2022/07/06 03:43:05;;;;;;;19.32;14.47;;;;;;;17.22;100.00;99138.76;3911708;89;21163;-83
2022/07/06 03:49:26;;;;;;;18.12;13.32;;;;;;;17.28;100.00;99146.77;3888741;90;21118;-83
2022/07/06 03:55:30;;;;;;;19.90;13.98;;;;;;;17.28;100.00;99138.48;3922490;88;21062;-83
2022/07/06 04:01:43;;;;;;;;;;;;;;;17.30;100.00;99133.31;3928012;89;22214;-82
2022/07/06 04:23:20;;;;;;;17.57;13.90;;;;;;;17.28;100.00;99134.33;3874598;91;21139;-82
2022/07/06 04:29:33;;;;;;;17.90;14.78;;;;;;;17.35;100.00;99139.78;3735185;93;21097;-83
2022/07/06 04:36:18;;;;;;;19.50;14.60;;;;;;;17.42;100.00;99156.86;3717302;94;21113;-85
2022/07/06 06:56:34;;;;;;;9.60;5.15;;;;;;;18.38;100.00;99223.70;3837032;91;20120;-82
2022/07/06 07:51:28;;;;;;;5.08;3.22;;;;;;;20.46;99.08;99245.81;3717274;95;21971;-83
2022/07/06 07:57:44;;;;;;;5.67;3.45;;;;;;;20.84;97.43;99234.31;3779506;90;21110;-83
2022/07/06 08:04:13;;;;;;;4.28;3.87;;;;;;;20.86;96.74;99243.01;3950524;88;21173;-82
2022/07/06 08:10:53;;;;;;;6.40;5.55;;;;;;;21.26;96.53;99252.06;3931739;88;21074;-82
2022/07/06 08:17:13;;;;;;;7.33;5.62;;;;;;;21.11;94.68;99264.03;4118820;83;55321;-83
2022/07/06 08:29:42;;;;;;;8.90;6.60;;;;;;;20.62;94.20;99255.55;4155822;84;21136;-82
2022/07/06 08:35:51;;;;;;;11.75;8.80;;;;;;;20.27;93.93;99264.14;4181104;83;21737;-84
2022/07/06 08:49:46;;;;;;;21.00;15.83;;;;;;;19.39;94.45;99269.41;4088523;86;21101;-84
2022/07/06 08:56:05;;;;;;;23.70;17.92;;;;;;;18.71;94.63;99292.03;3977709;87;21090;-83
2022/07/06 09:02:17;;;;;;;26.55;19.12;;;;;;;18.28;95.30;99298.65;4204302;84;21503;-82
2022/07/06 09:08:36;;;;;;;22.37;18.37;;;;;;;18.17;96.28;99311.28;4212069;83;21023;-83
2022/07/06 09:14:41;;;;;;;25.25;19.30;;;;;;;18.26;96.94;99310.77;4089022;83;21633;-83
2022/07/06 09:20:47;;;;;;;20.32;18.23;;;;;;;18.70;97.60;99315.44;4168112;84;20972;-83
2022/07/06 09:26:56;;;;;;;21.27;17.37;;;;;;;19.24;98.17;99316.08;4220406;82;21031;-83
2022/07/06 09:32:58;;;;;;;18.05;16.12;;;;;;;19.61;97.54;99303.87;4236029;83;21035;-83
2022/07/06 09:39:17;;;;;;;19.67;16.57;;;;;;;19.91;96.93;99301.66;4234694;83;21533;-83
2022/07/06 09:45:21;;;;;;;15.70;13.85;;;;;;;20.34;97.35;99294.56;4219389;82;21022;-83
2022/07/06 09:51:23;;;;;;;19.20;14.40;;;;;;;20.62;95.82;99284.75;4225841;83;21059;-83
2022/07/06 09:57:28;;;;;;;15.45;13.62;;;;;;;20.65;95.86;99283.28;4241657;82;21023;-83
2022/07/06 10:03:31;;;;;;;12.25;10.48;;;;;;;20.45;94.78;99282.59;4261189;83;21043;-83
2022/07/06 10:09:37;;;;;;;9.55;8.43;;;;;;;20.39;94.58;99285.69;4249477;82;20981;-83
2022/07/06 10:15:40;;;;;;;7.20;6.50;;;;;;;20.31;93.23;99292.66;4230530;82;21371;-83
2022/07/06 10:21:46;;;;;;;7.28;6.15;;;;;;;20.06;92.53;99289.63;4256338;82;21020;-85
2022/07/06 10:27:48;;;;;;;8.55;6.47;;;;;;;20.03;92.15;99287.69;4242266;83;21020;-84
2022/07/06 10:33:50;;;;;;;9.23;7.00;;;;;;;20.24;92.25;99281.69;4236409;83;21113;-82
2022/07/06 10:46:20;;;;;;;6.45;5.80;;;;;;;20.50;91.70;99279.89;4238503;82;21544;-83
2022/07/06 10:52:21;;;;;;;;;;;;;;;20.78;90.38;99270.84;4236914;83;21047;-82
2022/07/06 10:58:52;;;;;;;6.03;5.42;;;;;;;20.95;89.29;99271.78;4226465;82;20675;-82
2022/07/06 11:04:56;;;;;;;6.15;5.08;;;;;;;21.18;89.62;99275.75;4213770;83;21021;-83
2022/07/06 11:11:08;;;;;;;4.50;4.20;;;;;;;21.46;87.89;99283.92;4183592;83;21002;-83
2022/07/06 11:17:11;;;;;;;7.50;4.50;;;;;;;22.46;87.72;99279.11;4150402;84;21039;-84
2022/07/06 11:23:13;;;;;;;4.00;3.50;;;;;;;23.45;85.97;99282.92;4078229;85;21107;-83
2022/07/06 11:29:23;;;;;;;5.62;2.72;;;;;;;24.05;83.65;99287.69;4127298;84;21067;-84
2022/07/06 11:35:25;;;;;;;6.12;2.90;;;;;;;24.16;81.39;99295.83;4145025;84;20976;-84
2022/07/06 11:41:27;;;;;;;3.60;2.52;;;;;;;23.96;80.98;99291.20;4143209;84;21024;-84
2022/07/06 11:47:32;;;;;;;8.83;3.12;;;;;;;24.26;79.77;99292.43;4137254;84;21059;-85
2022/07/06 11:53:35;;;;;;;2.33;2.00;;;;;;;24.85;79.44;99286.45;4128212;84;20996;-83
2022/07/06 11:59:39;;;;;;;3.17;1.92;;;;;;;25.14;77.12;99285.39;4137368;84;21099;-83
2022/07/06 12:05:42;;;;;;;3.12;1.95;;;;;;;24.69;76.27;99286.72;4130313;84;21056;-84
2022/07/06 12:11:48;;;;;;;2.62;1.77;;;;;;;24.21;75.32;99286.82;4134570;86;21044;-84
2022/07/06 12:17:56;;;;;;;2.60;1.50;;;;;;;24.43;74.47;99275.58;4116788;84;21868;-83
2022/07/06 12:23:57;;;;;;;3.02;1.57;;;;;;;24.22;72.88;99270.22;4196337;84;21575;-85
2022/07/06 12:30:11;;;;;;;3.95;1.50;;;;;;;23.94;72.36;99268.50;4212429;83;21107;-84
2022/07/06 12:36:20;;;;;;;1.67;1.47;;;;;;;23.60;70.88;99253.21;4200019;83;21061;-82
2022/07/06 12:42:23;;;;;;;4.28;1.27;;;;;;;23.53;67.91;99255.49;4213196;83;21041;-83
2022/07/06 12:48:25;;;;;;;1.20;0.90;;;;;;;23.25;68.99;99243.36;4200469;83;21049;-82
2022/07/06 12:54:33;;;;;;;3.17;1.10;;;;;;;23.13;68.72;99248.36;4200842;83;21037;-84
2022/07/06 13:00:48;;;;;;;1.52;1.10;;;;;;;23.04;67.32;99240.67;4205563;83;21042;-84
2022/07/06 13:06:51;;;;;;;1.80;1.40;;;;;;;22.91;67.41;99246.14;4209259;84;21027;-84
2022/07/06 13:12:55;;;;;;;2.45;1.82;;;;;;;22.78;67.55;99254.55;4205296;83;20954;-84
2022/07/06 13:18:59;;;;;;;5.22;2.10;;;;;;;22.66;67.20;99260.16;4207423;82;21733;-83
2022/07/06 13:25:01;;;;;;;2.80;1.57;;;;;;;22.65;67.35;99276.12;4203628;83;21077;-83
2022/07/06 13:31:04;;;;;;;2.27;1.60;;;;;;;22.58;67.67;99275.58;4190878;83;21081;-81
2022/07/06 13:37:05;;;;;;;4.35;1.82;;;;;;;22.46;67.58;99281.90;4206259;83;21718;-85
2022/07/06 13:43:06;;;;;;;2.22;1.62;;;;;;;22.38;67.89;99273.62;4212252;82;21052;-84
2022/07/06 13:49:11;;;;;;;3.77;1.55;;;;;;;22.44;68.08;99267.64;4208083;84;21999;-83
2022/07/06 13:55:14;;;;;;;2.33;1.20;;;;;;;22.26;67.11;99268.20;4206433;83;21453;-84
2022/07/06 14:01:17;;;;;;;1.82;1.32;;;;;;;22.03;66.73;99267.75;4220868;82;20986;-84
2022/07/06 14:07:22;;;;;;;5.35;1.80;;;;;;;22.13;66.31;99259.67;4224353;82;21008;-83
2022/07/06 14:13:23;;;;;;;4.17;1.60;;;;;;;22.20;67.16;99263.02;4225254;83;21601;-84
2022/07/06 14:19:26;;;;;;;4.95;1.90;;;;;;;22.26;67.29;99264.63;4222783;82;21015;-84
2022/07/06 14:25:28;;;;;;;3.20;1.40;;;;;;;22.33;67.00;99267.95;4238064;83;21043;-84
2022/07/06 14:31:29;;;;;;;2.95;1.27;;;;;;;22.06;66.66;99271.83;4221000;82;21506;-84
2022/07/06 14:37:31;;;;;;;2.87;1.30;;;;;;;21.55;66.06;99297.38;4210862;82;21013;-84
2022/07/06 14:43:36;;;;;;;3.02;1.15;;;;;;;20.70;66.21;99295.28;4255378;82;20988;-84
2022/07/06 14:49:37;;;;;;;1.55;1.20;;;;;;;20.05;66.51;99309.68;4230351;84;21474;-84
2022/07/06 14:55:39;;;;;;;2.62;1.20;;;;;;;19.51;66.90;99298.70;4177019;83;21724;-84
2022/07/06 15:01:44;;;;;;;2.17;1.30;;;;;;;19.15;67.00;99290.09;4230016;84;21110;-84
2022/07/06 15:07:58;;;;;;;3.95;1.77;;;;;;;18.78;67.89;99298.69;4229697;84;21445;-85
2022/07/06 15:14:02;;;;;;;7.10;3.17;;;;;;;18.48;68.96;99306.48;4230787;83;21028;-85
2022/07/06 15:20:04;;;;;;;4.80;3.10;;;;;;;18.15;71.03;99297.67;4211459;83;21070;-84
2022/07/06 15:26:08;;;;;;;8.90;3.83;;;;;;;18.04;73.05;99304.73;4194176;83;21497;-84
2022/07/06 15:32:12;;;;;;;4.10;3.70;;;;;;;17.91;73.73;99305.72;4204080;82;21010;-83
2022/07/06 15:38:13;;;;;;;3.02;2.72;;;;;;;17.78;74.74;99281.95;4253086;82;21452;-83
2022/07/06 15:44:17;;;;;;;7.97;2.62;;;;;;;17.89;76.63;99265.19;4254733;83;21097;-83
2022/07/06 15:50:20;;;;;;;2.67;2.47;;;;;;;18.22;77.88;99267.88;4219984;83;20992;-83
2022/07/06 15:56:22;;;;;;;4.85;2.72;;;;;;;18.59;78.75;99273.83;4250107;84;21404;-83
2022/07/06 16:02:25;;;;;;;2.70;2.50;;;;;;;18.77;78.87;99265.21;4244726;82;21043;-83
2022/07/06 16:08:29;;;;;;;3.02;2.67;;;;;;;18.78;79.39;99274.50;4260341;83;21057;-83
2022/07/06 16:14:32;;;;;;;2.80;2.37;;;;;;;18.70;78.65;99281.36;4255835;83;21058;-83
2022/07/06 16:20:34;;;;;;;3.30;2.72;;;;;;;18.62;79.01;99277.94;4232432;83;21509;-83
2022/07/06 16:26:36;;;;;;;3.50;2.40;;;;;;;18.67;79.76;99278.84;4237581;82;21033;-83
2022/07/06 16:32:37;;;;;;;5.95;3.02;;;;;;;18.80;79.26;99292.09;4230129;82;21031;-84
2022/07/06 16:38:39;;;;;;;5.33;2.75;;;;;;;18.79;79.69;99291.34;4240497;82;21063;-83
2022/07/06 16:44:41;;;;;;;3.55;2.30;;;;;;;18.70;79.51;99298.80;4196784;83;21026;-82
2022/07/06 16:50:42;;;;;;;5.85;2.33;;;;;;;18.63;80.21;99305.06;4243985;82;21401;-82
2022/07/06 16:56:45;;;;;;;5.95;2.55;;;;;;;18.50;79.84;99297.94;4256884;83;21378;-84
2022/07/06 17:02:46;;;;;;;3.67;2.00;;;;;;;18.43;80.83;99303.58;4176877;83;21498;-83
2022/07/06 17:08:47;;;;;;;7.25;1.95;;;;;;;18.38;80.56;99319.33;4171690;83;21051;-82
2022/07/06 17:14:51;;;;;;;4.87;1.77;;;;;;;18.26;80.74;99319.09;4216608;83;21051;-82
2022/07/06 17:20:58;;;;;;;3.17;1.72;;;;;;;18.13;80.54;99331.34;4210461;83;21040;-82
2022/07/06 17:26:59;;;;;;;2.07;1.73;;;;;;;18.09;80.31;99326.44;4186144;83;20991;-83
2022/07/06 17:33:01;;;;;;;4.33;1.75;;;;;;;18.06;80.64;99330.63;4187424;83;21010;-82
2022/07/06 17:39:02;;;;;;;3.85;1.40;;;;;;;18.11;80.50;99325.42;4150586;83;21066;-83
2022/07/06 17:45:10;;;;;;;2.83;1.60;;;;;;;18.19;80.55;99322.74;3975189;89;20995;-82
2022/07/06 17:51:11;;;;;;;4.22;1.40;;;;;;;18.17;79.56;99327.11;3957578;89;21075;-82
2022/07/06 17:57:13;;;;;;;2.83;1.70;;;;;;;18.22;79.78;99321.11;3959789;88;21556;-82
2022/07/06 18:03:17;;;;;;;4.80;1.92;;;;;;;18.22;79.73;99332.19;3966451;88;21457;-83
2022/07/06 18:09:19;;;;;;;2.95;1.65;;;;;;;18.17;78.45;99334.04;3961551;88;21006;-83
2022/07/06 18:15:23;;;;;;;4.25;1.75;;;;;;;18.07;78.66;99334.37;3897701;90;21735;-83
2022/07/06 18:21:25;;;;;;;1.20;1.10;;;;;;;17.99;77.58;99336.28;3896575;90;21139;-83
2022/07/06 18:27:27;;;;;;;4.25;1.47;;;;;;;17.92;78.07;99337.16;3887402;90;21392;-85
2022/07/06 18:33:30;;;;;;;2.67;1.60;;;;;;;17.74;77.01;99337.98;3842223;91;21782;-83
2022/07/06 18:39:32;;;;;;;7.20;1.60;;;;;;;17.63;78.21;99335.15;3843264;90;21120;-83
2022/07/06 18:45:34;;;;;;;6.65;1.72;;;;;;;17.49;77.12;99335.31;3965949;89;21129;-83
2022/07/06 18:51:37;;;;;;;5.20;1.70;;;;;;;17.37;76.86;99332.44;3961115;88;21050;-83
2022/07/06 18:57:39;;;;;;;1.98;1.70;;;;;;;17.24;77.99;99334.18;3963433;88;21073;-83
2022/07/06 19:03:41;;;;;;;2.98;1.85;;;;;;;17.01;77.60;99342.28;3963699;88;20995;-83
2022/07/06 19:09:42;;;;;;;3.22;2.00;;;;;;;16.88;77.99;99352.30;3964370;88;21467;-84
2022/07/06 19:15:44;;;;;;;6.15;2.25;;;;;;;16.62;78.43;99354.27;3964967;90;21007;-83
2022/07/06 19:21:45;;;;;;;3.55;2.67;;;;;;;16.45;79.44;99374.52;3966231;88;20987;-82
2022/07/06 19:27:46;;;;;;;5.03;2.92;;;;;;;16.45;80.37;99371.76;3958976;88;21030;-83
2022/07/06 19:33:47;;;;;;;4.62;3.30;;;;;;;16.38;80.93;99368.41;3961320;88;21058;-83
2022/07/06 19:39:49;;;;;;;5.72;3.15;;;;;;;16.33;81.71;99370.83;3958916;88;21624;-82
2022/07/06 19:45:50;;;;;;;4.42;3.60;;;;;;;16.29;82.86;99383.27;3959293;88;21652;-83
2022/07/06 19:51:51;;;;;;;6.47;4.42;;;;;;;16.33;83.28;99390.16;3962220;88;21024;-83
2022/07/06 19:57:55;;;;;;;6.83;3.72;;;;;;;16.23;83.80;99392.38;4019465;88;20981;-82
2022/07/06 20:03:57;;;;;;;6.40;4.30;;;;;;;16.21;84.78;99396.92;3924632;89;21613;-83
2022/07/06 20:09:58;;;;;;;5.62;4.28;;;;;;;16.16;85.02;99399.33;3981771;88;21943;-83
2022/07/06 20:16:00;;;;;;;7.10;4.67;;;;;;;16.06;85.62;99396.02;3986858;88;21052;-83
2022/07/06 20:22:03;;;;;;;5.67;4.00;;;;;;;15.98;86.13;99391.13;3935997;89;21104;-82
2022/07/06 20:28:04;;;;;;;6.08;4.33;;;;;;;15.94;86.57;99398.65;3889018;89;21625;-83
2022/07/06 20:34:06;;;;;;;8.00;4.30;;;;;;;15.82;87.12;99403.20;3893337;89;21539;-83
2022/07/06 20:40:08;;;;;;;5.15;3.75;;;;;;;15.87;87.78;99411.09;3901647;89;21091;-83
2022/07/06 20:46:09;;;;;;;8.33;4.85;;;;;;;15.88;87.22;99402.98;3873317;90;21047;-82
2022/07/06 20:52:11;;;;;;;9.03;4.53;;;;;;;15.70;87.78;99396.75;3950374;89;21132;-82
2022/07/06 20:58:14;;;;;;;8.03;4.25;;;;;;;15.58;88.10;99397.95;3889240;91;21446;-83
2022/07/06 21:04:16;;;;;;;9.30;5.37;;;;;;;15.58;88.63;99398.57;3958821;89;21108;-83
2022/07/06 21:10:17;;;;;;;5.42;4.92;;;;;;;15.46;88.48;99398.97;3932247;90;21588;-83
2022/07/06 21:17:10;;;;;;;8.45;5.53;;;;;;;15.42;88.95;99399.00;3932843;89;21018;-83
2022/07/06 21:23:12;;;;;;;5.65;5.08;;;;;;;15.31;88.88;99396.02;3972992;88;21675;-83
2022/07/06 21:29:13;;;;;;;8.30;5.40;;;;;;;15.28;90.43;99402.34;3935057;89;21117;-83
2022/07/06 21:35:14;;;;;;;5.92;5.17;;;;;;;15.33;90.12;99396.42;3923834;89;21060;-83
2022/07/06 21:41:17;;;;;;;9.68;5.03;;;;;;;15.36;90.67;99399.16;3934316;90;21787;-83
2022/07/06 21:47:18;;;;;;;9.73;4.92;;;;;;;15.48;91.38;99393.85;3959618;89;21065;-83
2022/07/06 21:53:21;;;;;;;11.08;4.90;;;;;;;15.51;91.15;99395.81;3958656;89;21073;-83
2022/07/06 21:59:26;;;;;;;7.45;4.60;;;;;;;15.47;90.71;99393.67;3907909;90;21037;-82
2022/07/06 22:05:29;;;;;;;7.75;5.10;;;;;;;15.43;91.72;99388.15;3946600;89;21047;-83
2022/07/06 22:12:07;;;;;;;7.62;5.65;;;;;;;15.49;91.56;99384.37;3922988;89;21097;-83
2022/07/06 22:18:10;;;;;;;10.72;5.15;;;;;;;15.43;91.62;99384.02;3921052;89;21130;-82
2022/07/06 22:24:12;;;;;;;5.40;4.83;;;;;;;15.38;92.12;99393.27;3912765;90;21597;-83
2022/07/06 22:30:15;;;;;;;6.42;4.47;;;;;;;15.47;92.73;99386.16;3915334;90;21120;-83
2022/07/06 22:36:23;;;;;;;6.70;4.85;;;;;;;15.36;91.84;99393.64;3915785;89;21535;-83
2022/07/06 22:42:20;;;;;;;8.95;5.28;;;;;;;15.41;93.09;99396.03;3930869;89;21080;-83
2022/07/06 22:48:21;;;;;;;7.62;5.15;;;;;;;15.37;92.88;99385.58;3982530;88;21071;-82
2022/07/06 22:54:23;;;;;;;9.45;4.87;;;;;;;15.32;93.09;99382.42;3982116;88;22033;-83
2022/07/06 23:00:24;;;;;;;6.22;4.72;;;;;;;15.35;93.64;99382.42;3986610;88;21105;-82
2022/07/06 23:06:26;;;;;;;6.22;4.78;;;;;;;15.38;93.34;99381.66;4018676;88;21060;-83
2022/07/06 23:12:27;;;;;;;8.10;4.85;;;;;;;15.27;92.91;99387.75;3920926;89;21085;-83
2022/07/06 23:18:30;;;;;;;7.10;5.25;;;;;;;15.17;92.77;99380.88;3938911;89;21111;-83
2022/07/06 23:24:33;;;;;;;6.90;4.78;;;;;;;15.09;93.57;99375.97;3930488;89;22247;-83
2022/07/06 23:30:34;;;;;;;5.85;4.17;;;;;;;15.03;93.26;99380.89;3956418;89;21554;-83
2022/07/06 23:36:37;;;;;;;4.15;3.75;;;;;;;15.01;93.98;99370.26;3931206;89;21013;-82
2022/07/06 23:42:38;;;;;;;5.05;3.90;;;;;;;15.05;93.57;99371.03;3925662;89;21048;-83
2022/07/06 23:48:39;;;;;;;4.80;4.15;;;;;;;14.83;92.87;99367.31;3854823;90;21047;-83
2022/07/06 23:54:42;;;;;;;9.20;3.83;;;;;;;14.65;93.35;99372.81;3900726;89;21126;-83
